createdAt,value
2022-11-28T00:03:57.947Z,16.75
2022-11-28T00:06:24.692Z,11.55
2022-11-28T00:08:51.733Z,15.32
2022-11-28T00:11:18.718Z,8.80
2022-11-28T00:13:46.370Z,12.23
2022-11-28T00:16:17.550Z,18.73
2022-11-28T00:18:44.816Z,17.70
2022-11-28T00:21:14.434Z,17.35
2022-11-28T00:23:42.960Z,16.85
2022-11-28T00:26:13.872Z,21.88
2022-11-28T00:28:40.432Z,21.00
2022-11-28T00:31:11.579Z,13.57
2022-11-28T00:33:38.145Z,16.45
2022-11-28T00:36:05.896Z,23.83
2022-11-28T00:38:32.512Z,22.27
2022-11-28T00:41:02.158Z,24.65
2022-11-28T00:43:29.600Z,17.45
2022-11-28T00:45:56.619Z,16.95
2022-11-28T00:48:23.841Z,19.08
2022-11-28T00:50:51.636Z,16.00
2022-11-28T00:53:18.282Z,17.13
2022-11-28T00:55:44.927Z,15.60
2022-11-28T00:58:11.805Z,17.50
2022-11-28T01:00:38.875Z,23.00
2022-11-28T01:03:05.580Z,21.35
2022-11-28T01:05:32.168Z,14.73
2022-11-28T01:07:59.189Z,16.13
2022-11-28T01:10:27.109Z,19.80
2022-11-28T01:12:53.786Z,19.20
2022-11-28T01:15:20.362Z,17.00
2022-11-28T01:17:46.920Z,12.10
2022-11-28T01:20:13.764Z,18.65
2022-11-28T01:22:40.321Z,15.32
2022-11-28T01:25:07.347Z,21.52
2022-11-28T01:27:33.889Z,11.27
2022-11-28T01:30:00.461Z,18.52
2022-11-28T01:32:27.094Z,23.17
2022-11-28T01:34:53.654Z,27.52
2022-11-28T01:37:20.206Z,20.65
2022-11-28T01:39:46.823Z,8.93
2022-11-28T01:42:21.500Z,24.60
2022-11-28T01:47:28.101Z,14.95
2022-11-28T01:49:55.554Z,22.10
2022-11-28T01:52:23.352Z,18.98
2022-11-28T01:54:56.298Z,15.40
2022-11-28T01:57:25.491Z,15.40
2022-11-28T02:00:13.897Z,15.60
2022-11-28T02:02:45.793Z,20.15
2022-11-28T02:05:13.360Z,18.92
2022-11-28T02:07:40.366Z,11.07
2022-11-28T02:10:10.729Z,15.63
2022-11-28T02:32:13.865Z,8.35
2022-11-28T02:37:38.061Z,24.33
2022-11-28T02:45:30.404Z,9.90
2022-11-28T02:48:03.915Z,10.40
2022-11-28T02:50:39.541Z,14.80
2022-11-28T02:53:12.376Z,24.92
2022-11-28T02:55:41.361Z,11.63
2022-11-28T02:58:09.289Z,6.75
2022-11-28T03:00:38.424Z,13.77
2022-11-28T03:08:46.149Z,10.25
2022-11-28T03:13:57.836Z,20.17
2022-11-28T03:16:31.250Z,23.02
2022-11-28T03:29:37.153Z,14.43
2022-11-28T03:32:13.477Z,17.35
2022-11-28T03:34:44.884Z,19.23
2022-11-28T03:37:15.687Z,18.50
2022-11-28T03:39:48.383Z,21.08
2022-11-28T03:42:19.723Z,22.40
2022-11-28T03:44:52.547Z,15.15
2022-11-28T03:47:19.249Z,14.60
2022-11-28T03:49:53.139Z,27.25
2022-11-28T03:52:38.061Z,14.40
2022-11-28T03:55:11.717Z,15.40
2022-11-28T03:57:54.680Z,14.27
2022-11-28T04:00:21.376Z,14.57
2022-11-28T04:03:02.140Z,17.45
2022-11-28T04:08:27.298Z,32.58
2022-11-28T04:18:57.790Z,10.70
2022-11-28T04:24:09.383Z,17.55
2022-11-28T04:26:41.082Z,16.77
2022-11-28T04:29:11.045Z,16.38
2022-11-28T04:31:40.547Z,9.98
2022-11-28T04:34:10.171Z,17.65
2022-11-28T04:36:40.599Z,58.67
2022-11-28T04:39:14.897Z,50.15
2022-11-28T04:41:48.544Z,62.38
2022-11-28T04:44:39.747Z,98.43
2022-11-28T04:47:07.005Z,30.02
2022-11-28T04:49:34.054Z,109.25
2022-11-28T04:57:20.786Z,16.42
2022-11-28T04:59:48.773Z,13.40
2022-11-28T05:02:17.848Z,10.80
2022-11-28T05:04:45.404Z,38.70
2022-11-28T05:07:12.251Z,60.70
2022-11-28T05:09:39.019Z,99.30
2022-11-28T05:12:06.607Z,115.78
2022-11-28T05:14:33.220Z,81.03
2022-11-28T05:16:59.773Z,39.72
2022-11-28T05:19:26.295Z,41.25
2022-11-28T05:21:53.590Z,42.90
2022-11-28T05:24:22.349Z,17.73
2022-11-28T05:26:49.355Z,18.73
2022-11-28T05:29:16.174Z,14.07
2022-11-28T05:31:42.803Z,16.38
2022-11-28T05:34:09.461Z,16.98
2022-11-28T05:36:36.111Z,17.13
2022-11-28T05:39:03.001Z,16.60
2022-11-28T05:41:31.774Z,21.15
2022-11-28T05:43:59.485Z,45.40
2022-11-28T05:46:27.219Z,13.20
2022-11-28T05:48:54.003Z,34.65
2022-11-28T05:51:20.553Z,26.80
2022-11-28T05:53:47.234Z,60.13
2022-11-28T05:56:17.150Z,66.00
2022-11-28T05:58:44.575Z,48.28
2022-11-28T06:01:15.328Z,12.88
2022-11-28T06:03:42.520Z,15.77
2022-11-28T06:06:17.051Z,35.90
2022-11-28T06:08:44.360Z,35.72
2022-11-28T06:11:12.209Z,23.30
2022-11-28T06:13:38.789Z,22.02
2022-11-28T06:16:10.816Z,13.65
2022-11-28T06:18:38.443Z,9.05
2022-11-28T06:21:06.334Z,17.65
2022-11-28T06:23:33.321Z,13.02
2022-11-28T06:26:06.509Z,9.80
2022-11-28T06:28:33.969Z,10.85
2022-11-28T06:31:01.126Z,18.58
2022-11-28T06:33:27.751Z,9.60
2022-11-28T06:36:04.158Z,14.98
2022-11-28T06:38:31.517Z,11.27
2022-11-28T06:41:00.108Z,4.65
2022-11-28T06:43:26.817Z,8.15
2022-11-28T06:45:53.483Z,7.43
2022-11-28T06:48:20.282Z,11.45
2022-11-28T06:50:46.993Z,22.33
2022-11-28T06:53:13.892Z,12.95
2022-11-28T06:55:40.785Z,22.13
2022-11-28T06:58:07.322Z,18.38
2022-11-28T07:00:34.244Z,32.30
2022-11-28T07:03:00.819Z,13.07
2022-11-28T07:05:27.891Z,13.15
2022-11-28T07:07:55.098Z,11.45
2022-11-28T07:10:22.974Z,8.80
2022-11-28T07:12:54.755Z,6.95
2022-11-28T07:15:21.861Z,7.15
2022-11-28T07:17:48.683Z,5.25
2022-11-28T07:20:15.551Z,40.92
2022-11-28T07:22:43.732Z,20.50
2022-11-28T07:25:11.218Z,15.82
2022-11-28T07:27:37.748Z,30.52
2022-11-28T07:30:04.838Z,13.30
2022-11-28T07:32:31.378Z,22.13
2022-11-28T07:34:57.966Z,8.23
2022-11-28T07:37:24.536Z,9.55
2022-11-28T07:39:51.145Z,9.52
2022-11-28T07:42:17.762Z,12.77
2022-11-28T07:44:44.309Z,11.35
2022-11-28T07:47:10.819Z,13.02
2022-11-28T07:49:37.384Z,9.73
2022-11-28T07:52:04.091Z,10.02
2022-11-28T07:54:30.838Z,11.85
2022-11-28T07:57:12.011Z,30.40
2022-11-28T07:59:39.489Z,39.90
2022-11-28T08:02:06.174Z,6.63
2022-11-28T08:04:32.729Z,49.85
2022-11-28T08:07:00.363Z,10.55
2022-11-28T08:09:26.925Z,7.55
2022-11-28T08:11:53.720Z,8.32
2022-11-28T08:14:20.422Z,6.18
2022-11-28T08:16:47.081Z,4.65
2022-11-28T08:19:13.873Z,9.52
2022-11-28T08:21:40.688Z,5.72
2022-11-28T08:24:08.258Z,5.05
2022-11-28T08:26:35.448Z,7.82
2022-11-28T08:29:03.333Z,7.55
2022-11-28T08:31:36.273Z,16.48
2022-11-28T08:34:05.497Z,6.07
2022-11-28T08:36:32.231Z,8.15
2022-11-28T08:39:23.870Z,15.45
2022-11-28T08:41:48.289Z,9.68
2022-11-28T08:44:15.436Z,5.55
2022-11-28T08:46:42.169Z,10.95
2022-11-28T08:49:08.848Z,16.70
2022-11-28T08:51:36.589Z,9.05
2022-11-28T08:54:03.130Z,8.48
2022-11-28T08:56:29.687Z,10.55
2022-11-28T08:58:56.267Z,14.50
2022-11-28T09:01:25.499Z,168.38
2022-11-28T09:03:53.729Z,220.75
2022-11-28T09:06:21.782Z,318.10
2022-11-28T09:08:51.256Z,241.15
2022-11-28T09:11:19.754Z,152.20
2022-11-28T09:13:46.808Z,59.85
2022-11-28T09:16:14.451Z,132.15
2022-11-28T09:18:41.169Z,15.77
2022-11-28T09:21:09.680Z,17.80
2022-11-28T09:23:37.366Z,12.40
2022-11-28T09:28:47.824Z,4.60
2022-11-28T09:31:16.103Z,21.17
2022-11-28T09:33:43.706Z,6.45
2022-11-28T09:36:14.570Z,8.15
2022-11-28T09:38:41.171Z,19.65
2022-11-28T09:46:54.745Z,7.53
2022-11-28T09:49:36.748Z,4.75
2022-11-28T09:52:26.609Z,6.10
2022-11-28T09:55:04.260Z,7.38
2022-11-28T09:57:51.569Z,5.55
2022-11-28T10:00:22.808Z,5.90
2022-11-28T10:19:46.053Z,4.32
2022-11-28T10:22:11.681Z,4.28
2022-11-28T10:24:43.729Z,3.80
2022-11-28T10:27:13.757Z,4.93
2022-11-28T10:30:03.059Z,8.70
2022-11-28T10:37:51.128Z,6.78
2022-11-28T10:40:45.117Z,5.57
2022-11-28T10:43:39.485Z,5.68
2022-11-28T10:46:38.123Z,7.25
2022-11-28T10:49:44.765Z,6.07
2022-11-28T10:52:26.422Z,10.10
2022-11-28T10:58:18.653Z,7.68
2022-11-28T11:00:49.445Z,6.60
2022-11-28T11:03:18.584Z,7.18
2022-11-28T11:05:45.545Z,4.20
2022-11-28T11:08:20.173Z,8.00
2022-11-28T11:13:25.723Z,6.68
2022-11-28T11:24:18.493Z,10.50
2022-11-28T11:26:48.859Z,7.40
2022-11-28T11:32:03.691Z,4.45
2022-11-28T11:34:36.672Z,9.30
2022-11-28T11:43:25.984Z,5.55
2022-11-28T11:46:13.553Z,9.77
2022-11-28T11:48:43.984Z,9.52
2022-11-28T11:54:18.301Z,5.70
2022-11-28T11:56:51.265Z,13.80
2022-11-28T12:02:17.298Z,9.02
2022-11-28T12:04:55.146Z,8.40
2022-11-28T12:07:29.974Z,10.57
2022-11-28T12:10:03.054Z,7.97
2022-11-28T12:12:38.115Z,10.05
2022-11-28T12:15:14.170Z,7.15
2022-11-28T12:17:58.601Z,5.07
2022-11-28T12:38:13.786Z,6.90
2022-11-28T12:56:54.592Z,9.32
2022-11-28T12:59:49.088Z,8.68
2022-11-28T13:02:44.036Z,9.10
2022-11-28T13:08:15.880Z,9.40
2022-11-28T13:10:47.451Z,7.60
2022-11-28T13:18:54.464Z,8.43
2022-11-28T13:24:08.760Z,13.45
2022-11-28T13:34:54.027Z,12.32
2022-11-28T13:45:44.004Z,9.00
2022-11-28T13:57:38.274Z,10.57
2022-11-28T14:00:23.893Z,12.10
2022-11-28T14:02:54.943Z,11.20
2022-11-28T14:08:07.265Z,11.15
2022-11-28T14:10:49.236Z,8.02
2022-11-28T14:13:34.685Z,7.93
2022-11-28T14:21:45.531Z,7.22
2022-11-28T14:26:59.512Z,13.93
2022-11-28T14:29:35.030Z,12.05
2022-11-28T14:34:49.078Z,8.27
2022-11-28T14:37:36.802Z,6.00
2022-11-28T14:40:23.887Z,5.40
2022-11-28T14:43:30.369Z,7.40
2022-11-28T14:46:25.836Z,6.95
2022-11-28T14:54:35.491Z,13.73
2022-11-28T14:57:03.705Z,6.40
2022-11-28T14:59:34.397Z,10.02
2022-11-28T15:02:26.134Z,6.03
2022-11-28T15:13:30.743Z,7.93
2022-11-28T15:15:57.877Z,5.68
2022-11-28T15:18:26.283Z,3.58
2022-11-28T15:21:01.312Z,17.65
2022-11-28T15:23:35.088Z,12.50
2022-11-28T15:26:03.219Z,16.08
2022-11-28T15:28:32.487Z,20.65
2022-11-28T15:31:01.476Z,22.80
2022-11-28T15:33:29.013Z,22.75
2022-11-28T15:38:32.397Z,13.98
2022-11-28T15:41:00.607Z,14.27
2022-11-28T15:43:27.755Z,14.98
2022-11-28T15:45:59.091Z,23.52
2022-11-28T15:48:37.675Z,17.45
2022-11-28T15:51:07.640Z,54.30
2022-11-28T15:53:42.270Z,25.08
2022-11-28T15:56:13.778Z,18.70
2022-11-28T15:58:41.221Z,32.83
2022-11-28T16:01:17.008Z,20.70
2022-11-28T16:03:49.757Z,15.98
2022-11-28T16:06:18.393Z,10.35
2022-11-28T16:08:50.905Z,11.80
2022-11-28T16:11:19.890Z,18.27
2022-11-28T16:13:47.793Z,13.20
2022-11-28T16:16:19.572Z,8.73
2022-11-28T16:18:54.726Z,12.15
2022-11-28T16:21:25.013Z,12.43
2022-11-28T16:23:51.588Z,10.13
2022-11-28T16:26:40.414Z,9.50
2022-11-28T16:31:44.906Z,9.00
2022-11-28T16:34:14.899Z,9.35
2022-11-28T16:36:45.837Z,139.93
2022-11-28T16:41:54.865Z,15.10
2022-11-28T16:44:24.885Z,12.95
2022-11-28T16:46:56.733Z,11.98
2022-11-28T16:54:58.852Z,12.40
2022-11-28T16:57:30.217Z,15.80
2022-11-28T16:59:59.442Z,9.20
2022-11-28T17:02:26.954Z,9.80
2022-11-28T17:04:54.234Z,9.30
2022-11-28T17:07:24.286Z,9.07
2022-11-28T17:09:51.055Z,12.70
2022-11-28T17:14:55.169Z,11.68
2022-11-28T17:17:24.058Z,14.05
2022-11-28T17:19:51.249Z,10.25
2022-11-28T17:22:21.177Z,11.43
2022-11-28T17:24:49.614Z,11.18
2022-11-28T17:27:16.764Z,13.20
2022-11-28T17:29:43.866Z,12.68
2022-11-28T17:32:13.505Z,12.02
2022-11-28T17:34:42.237Z,8.32
2022-11-28T17:37:10.077Z,7.55
2022-11-28T17:39:36.658Z,10.55
2022-11-28T17:42:03.337Z,9.95
2022-11-28T17:44:32.809Z,45.35
2022-11-28T17:47:00.823Z,61.20
2022-11-28T17:49:28.184Z,30.73
2022-11-28T17:51:55.929Z,28.40
2022-11-28T17:54:24.392Z,20.25
2022-11-28T17:56:53.146Z,16.50
2022-11-28T17:59:22.381Z,35.67
2022-11-28T18:01:49.461Z,20.30
2022-11-28T18:04:16.568Z,22.83
2022-11-28T18:06:44.743Z,23.30
2022-11-28T18:09:12.482Z,25.10
2022-11-28T18:11:40.519Z,27.38
2022-11-28T18:14:07.274Z,27.95
2022-11-28T18:16:36.015Z,21.63
2022-11-28T18:19:03.887Z,21.73
2022-11-28T18:21:30.540Z,19.10
2022-11-28T18:23:57.185Z,14.40
2022-11-28T18:26:26.223Z,12.30
2022-11-28T18:28:53.904Z,14.48
2022-11-28T18:31:23.602Z,14.90
2022-11-28T18:33:50.905Z,16.42
2022-11-28T18:36:20.380Z,12.68
2022-11-28T18:38:47.623Z,13.88
2022-11-28T18:41:16.923Z,24.48
2022-11-28T18:43:44.513Z,20.40
2022-11-28T18:46:13.745Z,23.75
2022-11-28T18:48:42.770Z,29.75
2022-11-28T18:51:15.241Z,18.35
2022-11-28T18:53:42.681Z,21.02
2022-11-28T18:56:09.966Z,20.95
2022-11-28T18:58:39.405Z,22.20
2022-11-28T19:03:51.004Z,20.70
2022-11-28T19:06:17.868Z,15.88
2022-11-28T19:08:44.627Z,15.65
2022-11-28T19:11:14.529Z,15.10
2022-11-28T19:13:42.804Z,19.15
2022-11-28T19:16:13.236Z,21.00
2022-11-28T19:18:40.822Z,16.77
2022-11-28T19:21:10.041Z,18.92
2022-11-28T19:23:36.812Z,15.20
2022-11-28T19:26:05.522Z,17.95
2022-11-28T19:28:32.272Z,23.88
2022-11-28T19:33:43.916Z,23.08
2022-11-28T19:36:12.636Z,22.13
2022-11-28T19:38:40.322Z,23.35
2022-11-28T19:41:10.218Z,17.35
2022-11-28T19:43:36.816Z,15.98
2022-11-28T19:46:04.412Z,17.45
2022-11-28T19:48:32.725Z,21.35
2022-11-28T19:50:59.403Z,15.93
2022-11-28T19:53:26.599Z,20.08
2022-11-28T19:55:54.257Z,17.85
2022-11-28T19:58:22.067Z,23.70
2022-11-28T20:00:49.291Z,20.88
2022-11-28T20:03:16.046Z,27.90
2022-11-28T20:05:42.889Z,22.35
2022-11-28T20:08:09.575Z,19.88
2022-11-28T20:10:38.538Z,22.15
2022-11-28T20:13:06.435Z,19.25
2022-11-28T20:15:37.144Z,27.92
2022-11-28T20:18:03.972Z,21.55
2022-11-28T20:20:31.007Z,22.45
2022-11-28T20:22:59.115Z,24.77
2022-11-28T20:25:25.911Z,22.25
2022-11-28T20:27:52.622Z,23.65
2022-11-28T20:30:19.335Z,28.00
2022-11-28T20:32:45.899Z,25.42
2022-11-28T20:35:12.835Z,22.15
2022-11-28T20:37:39.404Z,25.42
2022-11-28T20:40:06.857Z,22.30
2022-11-28T20:42:39.436Z,22.08
2022-11-28T20:45:07.084Z,22.67
2022-11-28T20:47:34.845Z,23.83
2022-11-28T20:50:01.520Z,28.58
2022-11-28T20:52:28.153Z,27.13
2022-11-28T20:54:54.684Z,24.42
2022-11-28T20:57:22.411Z,23.27
2022-11-28T20:59:49.475Z,23.63
2022-11-28T21:02:16.156Z,21.17
2022-11-28T21:04:42.836Z,24.35
2022-11-28T21:07:09.401Z,21.55
2022-11-28T21:09:35.958Z,21.05
2022-11-28T21:12:02.552Z,19.92
2022-11-28T21:14:29.461Z,30.58
2022-11-28T21:16:57.376Z,20.23
2022-11-28T21:19:24.005Z,17.30
2022-11-28T21:21:50.644Z,21.55
2022-11-28T21:24:17.265Z,20.45
2022-11-28T21:26:48.164Z,25.00
2022-11-28T21:29:19.850Z,22.92
2022-11-28T21:31:46.807Z,22.50
2022-11-28T21:34:14.705Z,19.23
2022-11-28T21:36:41.827Z,24.00
2022-11-28T21:39:13.898Z,23.23
2022-11-28T21:41:40.726Z,22.88
2022-11-28T21:44:07.343Z,25.27
2022-11-28T21:46:33.947Z,24.25
2022-11-28T21:49:00.558Z,22.33
2022-11-28T21:51:28.745Z,24.15
2022-11-28T21:53:57.407Z,24.63
2022-11-28T21:56:24.321Z,26.50
2022-11-28T21:58:50.888Z,23.80
2022-11-28T22:01:18.081Z,23.33
2022-11-28T22:03:44.766Z,21.10
2022-11-28T22:06:18.240Z,26.73
2022-11-28T22:08:45.483Z,26.42
2022-11-28T22:11:13.428Z,28.30
2022-11-28T22:13:43.349Z,25.65
2022-11-28T22:16:14.400Z,29.67
2022-11-28T22:18:40.953Z,31.67
2022-11-28T22:21:28.569Z,28.85
2022-11-28T22:23:56.178Z,27.77
2022-11-28T22:26:22.929Z,25.73
2022-11-28T22:28:53.541Z,24.20
2022-11-28T22:31:21.252Z,22.77
2022-11-28T22:33:49.218Z,27.30
2022-11-28T22:36:18.315Z,28.30
2022-11-28T22:38:46.050Z,26.17
2022-11-28T22:41:16.155Z,31.98
2022-11-28T22:43:42.788Z,25.27
2022-11-28T22:46:10.014Z,29.90
2022-11-28T22:48:39.945Z,27.33
2022-11-28T22:51:10.216Z,27.55
2022-11-28T22:53:36.987Z,26.67
2022-11-28T22:56:05.547Z,23.67
2022-11-28T22:58:42.425Z,22.30
2022-11-28T23:01:13.676Z,22.33
2022-11-28T23:03:40.336Z,33.00
2022-11-28T23:06:09.574Z,26.83
2022-11-28T23:08:36.216Z,28.45
2022-11-28T23:11:08.593Z,27.45
2022-11-28T23:13:36.268Z,25.45
2022-11-28T23:16:24.402Z,24.23
2022-11-28T23:18:53.954Z,23.88
2022-11-28T23:21:21.821Z,27.08
2022-11-28T23:23:49.142Z,29.45
2022-11-28T23:26:19.465Z,22.10
2022-11-28T23:31:15.874Z,25.33
2022-11-28T23:33:42.645Z,26.33
2022-11-28T23:38:50.859Z,27.95
2022-11-28T23:41:18.738Z,29.73
2022-11-28T23:43:46.146Z,28.33
2022-11-28T23:46:14.457Z,28.05
2022-11-28T23:48:42.677Z,36.38
2022-11-28T23:51:10.452Z,29.23
2022-11-28T23:53:37.058Z,30.80
2022-11-28T23:56:06.278Z,32.00
2022-11-28T23:58:34.578Z,28.33
